Time;durP1;ratioP1;P1;durP2;ratioP2;P2;SDS_P1;SDS_P2;PMS_P1;PMS_P2;Temp;Humidity;BMP_temperature;BMP_pressure;BME280_temperature;BME280_humidity;BME280_pressure;Samples;Min_cycle;Max_cycle;Signal;HPM_P1;HPM_P2
2022/04/22 00:01:19;;;;;;;3.72;2.88;;;14.20;1.00;;;;;;5057263;28;20026;-83
2022/04/22 00:03:45;;;;;;;4.70;3.10;;;14.20;1.00;;;;;;5055949;28;20039;-83
2022/04/22 00:06:11;;;;;;;3.78;3.00;;;14.20;1.00;;;;;;5053125;28;20032;-83
2022/04/22 00:08:37;;;;;;;5.75;3.08;;;14.20;1.00;;;;;;5058013;28;20083;-83
2022/04/22 00:13:47;;;;;;;6.05;3.30;;;14.00;1.00;;;;;;5055641;28;20048;-83
2022/04/22 00:16:12;;;;;;;5.53;3.33;;;14.00;1.00;;;;;;5056447;28;20016;-83
2022/04/22 00:18:39;;;;;;;4.18;2.95;;;13.80;1.00;;;;;;5055003;28;20098;-83
2022/04/22 00:21:04;;;;;;;3.10;2.70;;;13.70;1.00;;;;;;5055442;28;20021;-83
2022/04/22 00:23:30;;;;;;;5.18;2.97;;;13.80;1.00;;;;;;5056479;28;20040;-83
2022/04/22 00:25:58;;;;;;;4.55;3.30;;;13.60;1.00;;;;;;5055352;28;20087;-83
2022/04/22 00:28:24;;;;;;;5.22;3.45;;;13.50;1.00;;;;;;5056526;28;20017;-83
2022/04/22 00:30:50;;;;;;;6.80;3.72;;;13.40;1.00;;;;;;5055712;28;20120;-83
2022/04/22 00:33:16;;;;;;;5.32;3.47;;;13.30;1.00;;;;;;5052505;28;20080;-83
2022/04/22 00:35:43;;;;;;;4.63;3.42;;;13.50;1.00;;;;;;5058476;28;20111;-83
2022/04/22 00:38:09;;;;;;;4.30;3.75;;;13.20;1.00;;;;;;5056436;28;20032;-83
2022/04/22 00:40:35;;;;;;;5.05;3.53;;;13.30;1.00;;;;;;5056507;28;20049;-83
2022/04/22 00:43:23;;;;;;;7.25;3.53;;;13.10;1.00;;;;;;5056255;28;20031;-83
2022/04/22 00:45:51;;;;;;;5.72;3.45;;;13.30;1.00;;;;;;5055170;28;20020;-82
2022/04/22 00:48:17;;;;;;;3.70;3.30;;;13.40;1.00;;;;;;5051760;28;20025;-83
2022/04/22 00:50:44;;;;;;;5.65;3.50;;;13.40;1.00;;;;;;5057999;28;20028;-83
2022/04/22 00:53:10;;;;;;;5.72;3.40;;;13.20;1.00;;;;;;5054609;28;20111;-82
2022/04/22 00:55:40;;;;;;;4.22;3.70;;;13.20;1.00;;;;;;5055768;28;20540;-83
2022/04/22 00:58:07;;;;;;;6.10;3.83;;;13.20;1.00;;;;;;5055942;28;20024;-82
2022/04/22 01:00:33;;;;;;;4.10;3.70;;;13.00;1.00;;;;;;5051663;28;20036;-82
2022/04/22 01:02:59;;;;;;;5.63;3.55;;;13.10;1.00;;;;;;5055648;28;20029;-83
2022/04/22 01:10:55;;;;;;;5.35;3.38;;;13.00;1.00;;;;;;5056386;28;20032;-83
2022/04/22 01:13:21;;;;;;;3.60;3.30;;;12.80;1.00;;;;;;5055381;28;20430;-82
2022/04/22 01:15:47;;;;;;;4.85;4.00;;;12.80;1.00;;;;;;5054643;28;20020;-82
2022/04/22 01:18:14;;;;;;;4.90;3.35;;;12.90;1.00;;;;;;5051057;28;20040;-82
2022/04/22 01:20:40;;;;;;;5.70;3.53;;;12.80;1.00;;;;;;5057674;28;20029;-83
2022/04/22 01:23:05;;;;;;;5.43;3.60;;;12.90;1.00;;;;;;5055872;28;20048;-83
2022/04/22 01:25:31;;;;;;;4.68;3.78;;;12.60;1.00;;;;;;5054328;28;20501;-83
2022/04/22 01:27:58;;;;;;;6.25;3.70;;;12.60;1.00;;;;;;5053797;28;20504;-82
2022/04/22 01:30:24;;;;;;;5.40;3.83;;;12.60;1.00;;;;;;5049929;28;20025;-83
2022/04/22 01:32:54;;;;;;;5.90;3.55;;;12.80;1.00;;;;;;5056996;28;20405;-83
2022/04/22 01:35:21;;;;;;;4.53;3.47;;;12.80;1.00;;;;;;5054341;28;20029;-83
2022/04/22 01:37:47;;;;;;;3.95;3.45;;;12.60;1.00;;;;;;5055511;28;20033;-83
2022/04/22 01:40:14;;;;;;;4.40;3.85;;;12.50;1.00;;;;;;5053747;28;20043;-82
2022/04/22 01:42:40;;;;;;;5.40;3.65;;;12.30;1.00;;;;;;5051771;28;20115;-82
2022/04/22 01:45:07;;;;;;;6.63;3.70;;;12.20;1.00;;;;;;5053043;28;20600;-83
2022/04/22 01:47:33;;;;;;;4.45;3.65;;;11.90;1.00;;;;;;5057297;28;20028;-83
2022/04/22 01:49:59;;;;;;;5.72;3.72;;;11.60;1.00;;;;;;5055089;28;20033;-83
2022/04/22 01:52:27;;;;;;;6.28;3.80;;;11.90;1.00;;;;;;5055042;28;20044;-83
2022/04/22 01:54:55;;;;;;;4.55;4.10;;;12.30;1.00;;;;;;5054875;28;20024;-83
2022/04/22 01:57:23;;;;;;;5.95;3.88;;;11.80;1.00;;;;;;5034928;28;20021;-82
2022/04/22 01:59:49;;;;;;;4.18;3.72;;;11.90;1.00;;;;;;5064239;28;20067;-83
2022/04/22 02:02:19;;;;;;;5.05;3.83;;;12.00;1.00;;;;;;5055303;28;20028;-83
2022/04/22 02:04:45;;;;;;;5.32;3.92;;;12.20;1.00;;;;;;5054843;28;20037;-83
2022/04/22 02:07:11;;;;;;;6.13;3.90;;;12.20;1.00;;;;;;5052605;28;20400;-83
2022/04/22 02:09:37;;;;;;;5.25;3.90;;;12.30;1.00;;;;;;5050996;28;20064;-83
2022/04/22 02:12:06;;;;;;;5.63;4.07;;;12.20;1.00;;;;;;5052860;28;20056;-83
2022/04/22 02:14:33;;;;;;;5.10;3.90;;;12.20;1.00;;;;;;5055056;28;20032;-83
2022/04/22 02:16:59;;;;;;;4.15;3.75;;;12.30;1.00;;;;;;5054451;28;20029;-82
2022/04/22 02:19:25;;;;;;;5.97;3.72;;;12.30;1.00;;;;;;5053127;28;20121;-83
2022/04/22 02:21:51;;;;;;;4.32;3.58;;;12.30;1.00;;;;;;5054679;28;20025;-83
2022/04/22 02:24:17;;;;;;;6.03;3.90;;;12.30;1.00;;;;;;5049878;28;20029;-83
2022/04/22 02:29:27;;;;;;;5.13;3.10;;;12.00;1.00;;;;;;5055956;28;20448;-83
2022/04/22 02:31:53;;;;;;;6.70;4.22;;;12.00;1.00;;;;;;5054292;28;20025;-83
2022/04/22 02:34:22;;;;;;;7.32;3.83;;;12.00;1.00;;;;;;5054164;28;20052;-83
2022/04/22 02:36:49;;;;;;;4.32;3.92;;;11.90;1.00;;;;;;5053658;28;20020;-83
2022/04/22 02:39:15;;;;;;;5.20;4.20;;;11.60;1.00;;;;;;5050638;28;20501;-84
2022/04/22 02:47:09;;;;;;;4.72;3.90;;;11.70;1.00;;;;;;5053017;28;20036;-82
2022/04/22 02:49:35;;;;;;;4.63;3.80;;;11.70;1.00;;;;;;5052708;28;20037;-83
2022/04/22 02:52:01;;;;;;;5.32;4.13;;;11.60;1.00;;;;;;5053147;28;20108;-82
2022/04/22 02:54:30;;;;;;;4.72;3.45;;;11.30;1.00;;;;;;5050691;28;20410;-83
2022/04/22 02:56:56;;;;;;;9.43;4.07;;;11.20;1.00;;;;;;5053996;28;20041;-83
2022/04/22 02:59:23;;;;;;;7.07;3.83;;;11.40;1.00;;;;;;5054791;28;20037;-83
2022/04/22 03:01:49;;;;;;;4.85;4.35;;;11.50;1.00;;;;;;5054220;28;20029;-83
2022/04/22 03:04:15;;;;;;;7.03;4.50;;;11.60;1.00;;;;;;5054416;28;20790;-82
2022/04/22 03:06:41;;;;;;;5.80;4.00;;;11.60;1.00;;;;;;5052425;28;20029;-82
2022/04/22 03:09:07;;;;;;;4.53;4.07;;;11.40;1.00;;;;;;5051432;28;20032;-83
2022/04/22 03:11:34;;;;;;;7.78;4.22;;;11.30;1.00;;;;;;5055733;28;20470;-82
2022/04/22 03:14:03;;;;;;;6.20;4.30;;;11.30;1.00;;;;;;5054371;28;20450;-82
2022/04/22 03:16:29;;;;;;;4.90;4.07;;;11.50;1.00;;;;;;5051789;28;20029;-82
2022/04/22 03:18:55;;;;;;;4.78;4.20;;;11.50;1.00;;;;;;5057134;28;20029;-82
2022/04/22 03:21:22;;;;;;;5.93;4.47;;;11.40;1.00;;;;;;5053721;28;20025;-82
2022/04/22 03:23:48;;;;;;;6.03;4.18;;;11.40;1.00;;;;;;5059692;28;20071;-82
2022/04/22 03:26:14;;;;;;;5.93;4.40;;;11.40;1.00;;;;;;5056356;28;20440;-83
2022/04/22 03:28:39;;;;;;;5.43;4.28;;;11.30;1.00;;;;;;5056374;28;20029;-82
2022/04/22 03:31:05;;;;;;;5.97;4.47;;;11.00;1.00;;;;;;5057668;28;20110;-83
2022/04/22 03:33:31;;;;;;;4.82;4.30;;;10.90;1.00;;;;;;5054503;28;20581;-82
2022/04/22 03:35:56;;;;;;;4.78;3.88;;;10.80;1.00;;;;;;5057353;28;20037;-82
2022/04/22 03:38:22;;;;;;;5.18;4.28;;;11.10;1.00;;;;;;5057920;28;20029;-82
2022/04/22 03:40:49;;;;;;;7.00;4.30;;;10.90;1.00;;;;;;5057734;28;20025;-82
2022/04/22 03:43:15;;;;;;;6.28;4.35;;;10.90;1.00;;;;;;5057462;28;20025;-83
2022/04/22 03:45:41;;;;;;;4.93;4.05;;;11.00;1.00;;;;;;5055587;28;20029;-83
2022/04/22 03:48:08;;;;;;;4.88;4.40;;;10.90;1.00;;;;;;5054931;28;20413;-83
2022/04/22 03:50:36;;;;;;;5.10;4.50;;;11.00;1.00;;;;;;5059248;28;20508;-83
2022/04/22 03:53:02;;;;;;;5.50;4.25;;;10.90;1.00;;;;;;5056975;28;20033;-83
2022/04/22 03:55:28;;;;;;;5.47;4.53;;;10.90;1.00;;;;;;5057253;28;20025;-83
2022/04/22 03:58:12;;;;;;;5.13;4.63;;;11.10;1.00;;;;;;5056925;28;20051;-83
2022/04/22 04:00:46;;;;;;;5.75;4.38;;;10.90;1.00;;;;;;5055434;28;20040;-82
2022/04/22 04:03:13;;;;;;;7.55;4.40;;;10.70;1.00;;;;;;5053829;28;20037;-82
2022/04/22 04:05:40;;;;;;;5.15;4.28;;;10.50;1.00;;;;;;5058017;28;20032;-83
2022/04/22 04:08:10;;;;;;;6.63;4.50;;;10.60;1.00;;;;;;5055534;28;20025;-83
2022/04/22 04:16:04;;;;;;;6.00;4.55;;;11.10;1.00;;;;;;5055570;28;20086;-83
2022/04/22 04:18:31;;;;;;;5.07;4.30;;;10.90;1.00;;;;;;5053500;28;20028;-82
2022/04/22 04:23:43;;;;;;;6.18;4.50;;;11.00;1.00;;;;;;5058567;28;20091;-82
2022/04/22 04:26:09;;;;;;;6.45;4.93;;;10.90;1.00;;;;;;5056671;28;20028;-83
2022/04/22 04:28:36;;;;;;;6.03;4.70;;;10.70;1.00;;;;;;5056196;28;20029;-83
2022/04/22 04:31:03;;;;;;;5.90;4.85;;;10.70;1.00;;;;;;5056422;28;20063;-82
2022/04/22 04:33:29;;;;;;;8.32;5.18;;;10.60;1.00;;;;;;5053188;28;20124;-82
2022/04/22 04:35:55;;;;;;;5.68;5.00;;;10.20;1.00;;;;;;5056660;28;20111;-83
2022/04/22 04:38:21;;;;;;;7.43;4.60;;;10.20;1.00;;;;;;5056687;28;20067;-82
2022/04/22 04:40:47;;;;;;;5.63;4.47;;;10.40;1.00;;;;;;5056651;28;20401;-83
2022/04/22 04:43:13;;;;;;;6.72;5.10;;;10.60;1.00;;;;;;5057264;28;20067;-83
2022/04/22 04:45:38;;;;;;;6.90;4.90;;;10.60;1.00;;;;;;5052646;28;20524;-82
2022/04/22 04:48:05;;;;;;;8.57;4.90;;;10.50;1.00;;;;;;5054560;28;20378;-82
2022/04/22 04:50:33;;;;;;;6.15;5.00;;;10.60;1.00;;;;;;5058189;28;20028;-82
2022/04/22 04:52:59;;;;;;;8.13;5.13;;;10.50;1.00;;;;;;5054393;28;20039;-82
2022/04/22 04:55:25;;;;;;;6.57;4.72;;;10.30;1.00;;;;;;5061838;28;20025;-82
2022/04/22 04:57:51;;;;;;;6.47;4.82;;;10.30;1.00;;;;;;5055813;28;20028;-82
2022/04/22 05:00:18;;;;;;;7.18;5.43;;;10.40;1.00;;;;;;5051860;28;20417;-82
2022/04/22 05:02:44;;;;;;;6.38;5.40;;;10.60;1.00;;;;;;5058026;28;20091;-83
2022/04/22 05:05:11;;;;;;;5.30;4.70;;;10.60;1.00;;;;;;5056126;28;20509;-83
2022/04/22 05:07:51;;;;;;;7.97;4.75;;;10.40;1.00;;;;;;5054608;28;20039;-83
2022/04/22 05:10:18;;;;;;;5.00;4.50;;;10.20;1.00;;;;;;5055907;28;20033;-83
2022/04/22 05:12:44;;;;;;;6.85;5.40;;;10.20;1.00;;;;;;5054501;28;20028;-83
2022/04/22 05:15:11;;;;;;;7.05;5.07;;;10.40;1.00;;;;;;5068750;28;20053;-83
2022/04/22 05:17:39;;;;;;;6.00;5.35;;;10.50;1.00;;;;;;5057775;28;20032;-83
2022/04/22 05:20:05;;;;;;;6.68;5.88;;;10.30;1.00;;;;;;5055745;28;20551;-82
2022/04/22 05:22:31;;;;;;;8.57;5.45;;;9.90;1.00;;;;;;5054276;28;20443;-83
2022/04/22 05:24:56;;;;;;;8.65;5.50;;;9.80;1.00;;;;;;5055994;28;20021;-82
2022/04/22 05:27:22;;;;;;;7.03;5.40;;;9.60;1.00;;;;;;5066984;28;20026;-83
2022/04/22 05:32:37;;;;;;;11.38;6.05;;;9.70;1.00;;;;;;5055301;28;20444;-81
2022/04/22 05:35:08;;;;;;;10.93;5.68;;;9.80;1.00;;;;;;5052939;28;20400;-84
2022/04/22 05:37:53;;;;;;;9.93;5.90;;;9.90;1.00;;;;;;5055099;28;20130;-82
2022/04/22 05:40:20;;;;;;;6.85;5.70;;;10.00;1.00;;;;;;5054118;28;20052;-83
2022/04/22 05:42:47;;;;;;;7.90;5.30;;;9.90;1.00;;;;;;5053782;28;20025;-82
2022/04/22 05:45:15;;;;;;;7.15;5.63;;;9.90;1.00;;;;;;5051322;28;20029;-83
2022/04/22 05:47:42;;;;;;;8.25;5.75;;;10.20;1.00;;;;;;5056814;28;20381;-83
2022/04/22 05:50:11;;;;;;;7.57;6.68;;;10.40;1.00;;;;;;5054518;28;20397;-84
2022/04/22 05:52:39;;;;;;;11.80;6.93;;;10.60;1.00;;;;;;5055178;28;20416;-83
2022/04/22 05:55:07;;;;;;;8.73;6.72;;;10.30;1.00;;;;;;5054324;28;20050;-84
2022/04/22 05:57:33;;;;;;;12.77;7.00;;;10.40;1.00;;;;;;5052090;28;20024;-84
2022/04/22 06:00:00;;;;;;;8.63;6.43;;;10.40;1.00;;;;;;5053617;28;20140;-84
2022/04/22 06:02:26;;;;;;;7.88;6.68;;;10.30;1.00;;;;;;5054395;28;20246;-83
2022/04/22 06:04:55;;;;;;;7.60;6.35;;;10.60;1.00;;;;;;5052663;28;20494;-84
2022/04/22 06:07:21;;;;;;;9.20;6.43;;;10.60;1.00;;;;;;5054456;28;20067;-84
2022/04/22 06:12:32;;;;;;;7.57;5.95;;;10.70;1.00;;;;;;5035841;28;20028;-84
2022/04/22 06:15:02;;;;;;;7.75;5.82;;;10.60;1.00;;;;;;5054469;28;20112;-84
2022/04/22 06:17:29;;;;;;;9.65;6.63;;;10.60;1.00;;;;;;5055889;28;20043;-84
2022/04/22 06:19:56;;;;;;;8.45;6.13;;;10.80;1.00;;;;;;5054054;28;20128;-83
2022/04/22 06:22:22;;;;;;;8.30;6.78;;;10.80;1.00;;;;;;5054349;28;20032;-84
2022/04/22 06:24:48;;;;;;;10.95;6.72;;;10.90;1.00;;;;;;5054223;28;20482;-84
2022/04/22 06:27:21;;;;;;;10.70;7.47;;;11.10;1.00;;;;;;5050831;28;20029;-85
2022/04/22 06:29:49;;;;;;;11.90;6.90;;;10.80;1.00;;;;;;5063235;28;20012;-85
2022/04/22 06:32:16;;;;;;;11.23;7.82;;;10.90;1.00;;;;;;5054246;28;20033;-85
2022/04/22 06:34:41;;;;;;;18.70;11.00;;;11.10;1.00;;;;;;5054464;28;20124;-84
2022/04/22 06:37:11;;;;;;;14.32;10.68;;;11.10;1.00;;;;;;5054166;28;20060;-85
2022/04/22 06:47:54;;;;;;;13.35;8.00;;;11.20;1.00;;;;;;5063831;28;20059;-81
2022/04/22 06:50:20;;;;;;;9.32;6.90;;;11.30;1.00;;;;;;5054765;28;20025;-81
2022/04/22 06:52:46;;;;;;;12.30;7.55;;;11.30;1.00;;;;;;5053684;28;20449;-81
2022/04/22 06:55:17;;;;;;;7.97;7.18;;;11.20;1.00;;;;;;5054052;28;20025;-81
2022/04/22 06:57:46;;;;;;;10.88;7.72;;;11.20;1.00;;;;;;5052494;28;20032;-81
2022/04/22 07:00:13;;;;;;;10.88;7.60;;;11.30;1.00;;;;;;5050687;28;20576;-81
2022/04/22 07:02:39;;;;;;;9.82;7.57;;;11.50;1.00;;;;;;5055839;28;20033;-81
2022/04/22 07:05:05;;;;;;;13.48;7.75;;;11.60;1.00;;;;;;5053614;28;20067;-83
2022/04/22 07:07:31;;;;;;;8.77;7.22;;;11.80;1.00;;;;;;5054309;28;20538;-83
2022/04/22 07:09:57;;;;;;;12.85;7.85;;;12.00;1.00;;;;;;5053995;28;20028;-82
2022/04/22 07:12:27;;;;;;;11.93;7.65;;;12.00;1.00;;;;;;5049660;28;20048;-82
2022/04/22 07:15:03;;;;;;;10.32;7.90;;;12.20;1.00;;;;;;5053855;28;20029;-84
2022/04/22 07:17:30;;;;;;;11.15;8.38;;;12.30;1.00;;;;;;5055026;28;20036;-82
2022/04/22 07:19:56;;;;;;;10.98;8.02;;;12.20;1.00;;;;;;5051768;28;20045;-83
2022/04/22 07:22:22;;;;;;;11.27;8.63;;;12.00;1.00;;;;;;5052195;28;20402;-83
2022/04/22 07:24:48;;;;;;;11.50;8.63;;;12.20;1.00;;;;;;5052021;28;20024;-83
2022/04/22 07:27:14;;;;;;;10.65;8.48;;;12.30;1.00;;;;;;5050387;28;20026;-83
2022/04/22 07:29:41;;;;;;;9.90;8.43;;;12.40;1.00;;;;;;5055511;28;20040;-83
2022/04/22 07:32:08;;;;;;;11.50;9.20;;;12.40;1.00;;;;;;5052948;28;20151;-83
2022/04/22 07:34:33;;;;;;;9.90;8.85;;;12.60;1.00;;;;;;5051671;28;20458;-83
2022/04/22 07:37:00;;;;;;;9.48;8.52;;;12.70;1.00;;;;;;5053720;28;20098;-83
2022/04/22 07:39:26;;;;;;;9.45;8.30;;;13.00;1.00;;;;;;5049720;28;20096;-84
2022/04/22 07:41:53;;;;;;;14.25;8.82;;;13.30;1.00;;;;;;5054298;28;20025;-83
2022/04/22 07:47:09;;;;;;;13.80;8.95;;;13.60;1.00;;;;;;5052802;28;20040;-83
2022/04/22 07:49:35;;;;;;;10.45;9.15;;;13.60;1.00;;;;;;5053128;28;20107;-83
2022/04/22 07:52:01;;;;;;;14.20;9.48;;;13.60;1.00;;;;;;5053175;28;20139;-83
2022/04/22 07:54:27;;;;;;;10.68;8.75;;;13.70;1.00;;;;;;5049430;28;20029;-83
2022/04/22 07:56:53;;;;;;;10.13;9.10;;;13.90;1.00;;;;;;5054875;28;20035;-83
2022/04/22 07:59:18;;;;;;;9.80;8.77;;;14.00;1.00;;;;;;5051628;28;20115;-83
2022/04/22 08:01:44;;;;;;;13.35;8.82;;;14.20;1.00;;;;;;5051646;28;20059;-83
2022/04/22 08:04:12;;;;;;;11.25;8.85;;;14.10;1.00;;;;;;5053265;28;20032;-83
2022/04/22 08:06:38;;;;;;;11.05;9.18;;;14.30;1.00;;;;;;5053752;28;20058;-83
2022/04/22 08:09:04;;;;;;;9.32;8.40;;;14.50;1.00;;;;;;5086488;28;20511;-84
2022/04/22 08:11:30;;;;;;;9.60;8.57;;;14.30;1.00;;;;;;5058420;28;20027;-83
2022/04/22 08:13:56;;;;;;;10.13;9.10;;;14.50;1.00;;;;;;5056490;28;20029;-83
2022/04/22 08:16:22;;;;;;;13.23;8.95;;;14.80;1.00;;;;;;5056323;28;20021;-83
2022/04/22 08:18:48;;;;;;;9.13;8.23;;;14.80;1.00;;;;;;5055420;28;20468;-83
2022/04/22 08:21:14;;;;;;;11.38;8.07;;;15.00;1.00;;;;;;5052988;28;20065;-83
2022/04/22 08:23:39;;;;;;;11.25;8.57;;;15.00;1.00;;;;;;5058122;28;20021;-84
2022/04/22 08:26:05;;;;;;;11.18;8.63;;;15.10;1.00;;;;;;5054652;28;20032;-83
2022/04/22 08:28:31;;;;;;;13.15;8.85;;;15.00;1.00;;;;;;5055716;28;20025;-83
2022/04/22 08:30:56;;;;;;;9.40;8.50;;;15.20;1.00;;;;;;5056426;28;20082;-83
2022/04/22 08:33:22;;;;;;;10.88;8.38;;;15.30;1.00;;;;;;5052000;28;20106;-83
2022/04/22 08:35:48;;;;;;;12.93;8.57;;;15.50;1.00;;;;;;5058108;28;20477;-83
2022/04/22 08:38:13;;;;;;;13.73;8.90;;;15.60;1.00;;;;;;5054495;28;20061;-83
2022/04/22 08:40:39;;;;;;;12.05;9.00;;;15.70;1.00;;;;;;5053223;28;20059;-83
2022/04/22 08:43:06;;;;;;;10.93;8.50;;;15.70;1.00;;;;;;5055300;28;20505;-83
2022/04/22 08:45:33;;;;;;;9.82;8.32;;;15.90;1.00;;;;;;5053452;28;20347;-84
2022/04/22 08:50:50;;;;;;;14.25;9.13;;;16.30;1.00;;;;;;5057883;28;20123;-83
2022/04/22 08:53:21;;;;;;;11.60;8.88;;;16.10;1.00;;;;;;5055462;28;20048;-84
2022/04/22 08:55:49;;;;;;;11.43;9.30;;;16.10;1.00;;;;;;5056328;28;20017;-83
2022/04/22 08:58:15;;;;;;;13.70;9.52;;;16.10;1.00;;;;;;5055070;28;20512;-84
2022/04/22 09:00:43;;;;;;;12.18;9.30;;;16.10;1.00;;;;;;5053678;28;20120;-83
2022/04/22 09:03:09;;;;;;;11.73;9.55;;;16.20;1.00;;;;;;5052713;28;20024;-83
2022/04/22 09:05:36;;;;;;;10.68;9.63;;;16.10;1.00;;;;;;5057480;28;20413;-83
2022/04/22 09:08:06;;;;;;;12.38;9.68;;;16.20;1.00;;;;;;5055349;28;20024;-84
2022/04/22 09:10:32;;;;;;;13.45;9.30;;;16.00;1.00;;;;;;5055589;28;20029;-83
2022/04/22 09:12:58;;;;;;;10.63;9.00;;;16.40;1.00;;;;;;5055259;28;20484;-84
2022/04/22 09:15:31;;;;;;;10.82;8.82;;;16.50;1.00;;;;;;5049405;28;20579;-84
2022/04/22 09:18:08;;;;;;;12.82;9.80;;;16.90;1.00;;;;;;5055251;28;20079;-84
2022/04/22 09:20:34;;;;;;;14.93;9.70;;;16.80;1.00;;;;;;5055173;28;20116;-83
2022/04/22 09:23:00;;;;;;;12.45;9.70;;;16.90;1.00;;;;;;5054963;28;20017;-84
2022/04/22 09:25:26;;;;;;;16.83;8.75;;;16.90;1.00;;;;;;5054367;28;20029;-84
2022/04/22 09:27:52;;;;;;;12.60;9.52;;;16.90;1.00;;;;;;5066071;28;20401;-84
2022/04/22 09:30:18;;;;;;;10.50;9.27;;;16.80;1.00;;;;;;5051332;28;20025;-84
2022/04/22 09:32:46;;;;;;;10.75;9.52;;;16.80;1.00;;;;;;5057253;28;20576;-83
2022/04/22 09:35:17;;;;;;;10.55;9.55;;;17.10;1.00;;;;;;5054850;28;20495;-87
2022/04/22 09:43:33;;;;;;;10.15;8.43;;;16.80;1.00;;;;;;5053690;28;20079;-88
2022/04/22 09:45:59;;;;;;;13.23;9.52;;;17.10;1.00;;;;;;5053415;28;20055;-86
2022/04/22 09:48:25;;;;;;;10.60;8.90;;;17.10;1.00;;;;;;5050342;28;20095;-84
2022/04/22 09:50:56;;;;;;;10.05;9.10;;;17.20;1.00;;;;;;5056997;28;20116;-86
2022/04/22 09:53:33;;;;;;;11.52;9.63;;;17.20;1.00;;;;;;5055017;28;20499;-86
2022/04/22 09:56:05;;;;;;;13.02;8.93;;;17.20;1.00;;;;;;5052641;28;20045;-85
2022/04/22 09:58:31;;;;;;;12.50;9.13;;;17.50;1.00;;;;;;5052753;28;20029;-86
2022/04/22 10:01:02;;;;;;;12.20;8.80;;;17.70;1.00;;;;;;5054527;28;20036;-84
2022/04/22 10:03:32;;;;;;;9.82;8.90;;;17.90;1.00;;;;;;5050921;28;20049;-84
2022/04/22 10:05:59;;;;;;;12.50;9.75;;;17.70;1.00;;;;;;5054443;28;20112;-84
2022/04/22 10:08:28;;;;;;;10.55;9.55;;;17.60;1.00;;;;;;5055250;28;20560;-86
2022/04/22 10:10:58;;;;;;;10.50;9.18;;;17.80;1.00;;;;;;5053889;28;20104;-83
2022/04/22 10:13:30;;;;;;;10.88;9.23;;;18.10;1.00;;;;;;5054385;28;20461;-82
2022/04/22 10:15:56;;;;;;;11.80;8.85;;;18.00;1.00;;;;;;5054283;28;20055;-84
2022/04/22 10:18:23;;;;;;;11.88;9.23;;;18.00;1.00;;;;;;5050254;28;20029;-86
2022/04/22 10:20:49;;;;;;;16.08;9.75;;;18.10;1.00;;;;;;5063198;28;20028;-87
2022/04/22 10:23:15;;;;;;;10.10;9.10;;;18.10;1.00;;;;;;5052095;28;20029;-83
2022/04/22 10:25:40;;;;;;;10.65;9.30;;;18.20;1.00;;;;;;5053999;28;20023;-84
2022/04/22 10:28:09;;;;;;;10.15;9.00;;;18.40;1.00;;;;;;5053505;28;20430;-83
2022/04/22 10:30:37;;;;;;;11.52;8.80;;;18.40;1.00;;;;;;5049695;28;20821;-84
2022/04/22 10:33:03;;;;;;;13.60;9.18;;;18.70;1.00;;;;;;5052662;28;20052;-87
2022/04/22 10:35:29;;;;;;;13.18;9.48;;;18.90;1.00;;;;;;5053639;28;20123;-87
2022/04/22 10:37:58;;;;;;;9.27;8.30;;;19.00;1.00;;;;;;5052356;28;20103;-86
2022/04/22 10:40:26;;;;;;;10.43;9.20;;;19.40;1.00;;;;;;5054237;28;20037;-87
2022/04/22 10:42:52;;;;;;;11.18;9.13;;;19.90;1.00;;;;;;5049891;28;20028;-82
2022/04/22 10:48:21;;;;;;;11.70;9.95;;;21.10;1.00;;;;;;5068181;28;20062;-91
2022/04/22 10:51:02;;;;;;;11.25;10.13;;;21.40;1.00;;;;;;5067950;28;20381;-84
2022/04/22 10:53:33;;;;;;;12.38;9.90;;;22.00;1.00;;;;;;5063145;28;20036;-86
2022/04/22 10:56:24;;;;;;;12.38;11.07;;;22.20;1.00;;;;;;5056281;28;20100;-85
2022/04/22 10:59:15;;;;;;;11.75;9.65;;;22.60;1.00;;;;;;5054287;28;20037;-85
2022/04/22 11:01:42;;;;;;;10.77;9.77;;;23.10;1.00;;;;;;5053925;28;20051;-84
2022/04/22 11:04:29;;;;;;;10.50;9.43;;;23.50;1.00;;;;;;5053588;28;20163;-84
2022/04/22 11:06:56;;;;;;;11.52;9.95;;;24.30;1.00;;;;;;5053610;28;20477;-85
2022/04/22 11:09:31;;;;;;;14.50;9.73;;;24.10;1.00;;;;;;5049174;28;20029;-83
2022/04/22 11:11:58;;;;;;;11.52;10.25;;;23.90;1.00;;;;;;5060396;28;20040;-82
2022/04/22 11:14:32;;;;;;;11.20;9.90;;;23.50;1.00;;;;;;5048055;28;20029;-81
2022/04/22 11:17:44;;;;;;;11.18;10.07;;;23.40;1.00;;;;;;5055844;28;20029;-81
2022/04/22 11:20:09;;;;;;;11.50;9.88;;;23.40;1.00;;;;;;5053046;28;20041;-82
2022/04/22 11:22:58;;;;;;;11.07;9.98;;;23.30;1.00;;;;;;5053114;28;20221;-82
2022/04/22 11:25:29;;;;;;;10.73;9.63;;;24.30;1.00;;;;;;5051716;28;20508;-82
2022/04/22 11:27:58;;;;;;;10.23;9.07;;;24.80;1.00;;;;;;5053703;28;20017;-82
2022/04/22 11:30:27;;;;;;;10.02;9.02;;;24.80;1.00;;;;;;5033483;28;20117;-82
2022/04/22 11:33:08;;;;;;;10.38;9.45;;;25.10;1.00;;;;;;5054345;28;20497;-81
2022/04/22 11:35:34;;;;;;;11.02;9.55;;;24.80;1.00;;;;;;5053485;28;20033;-80
2022/04/22 11:38:03;;;;;;;13.70;9.80;;;24.90;1.00;;;;;;5053244;28;20067;-80
2022/04/22 11:40:35;;;;;;;11.18;9.85;;;24.70;1.00;;;;;;5057526;28;20033;-82
2022/04/22 11:43:12;;;;;;;11.95;10.63;;;25.00;1.00;;;;;;5057158;28;20358;-83
2022/04/22 11:45:43;;;;;;;11.90;9.95;;;25.00;1.00;;;;;;5054637;28;20029;-81
2022/04/22 11:48:10;;;;;;;10.93;9.80;;;25.00;1.00;;;;;;5054248;28;20036;-81
2022/04/22 11:50:40;;;;;;;10.85;9.75;;;24.80;1.00;;;;;;5059292;28;20104;-81
2022/04/22 11:53:20;;;;;;;9.70;8.90;;;24.60;1.00;;;;;;5055440;28;20033;-82
2022/04/22 11:55:47;;;;;;;11.48;10.20;;;24.60;1.00;;;;;;5055509;28;20108;-83
2022/04/22 11:58:23;;;;;;;10.55;9.50;;;24.80;1.00;;;;;;5056938;28;20074;-83
2022/04/22 12:06:19;;;;;;;10.43;9.43;;;25.60;1.00;;;;;;5052856;28;20527;-83
2022/04/22 12:08:56;;;;;;;10.82;8.32;;;25.10;1.00;;;;;;5058866;28;20118;-83
2022/04/22 12:11:23;;;;;;;10.35;9.35;;;25.20;1.00;;;;;;5055901;28;20108;-83
2022/04/22 12:13:50;;;;;;;10.55;9.05;;;24.70;1.00;;;;;;5056767;28;20028;-83
2022/04/22 12:16:20;;;;;;;12.20;9.13;;;24.60;1.00;;;;;;5056411;28;20394;-84
2022/04/22 12:18:50;;;;;;;10.27;9.27;;;24.30;1.00;;;;;;5055218;28;20517;-83
2022/04/22 12:21:17;;;;;;;10.43;9.38;;;24.40;1.00;;;;;;5052608;28;20036;-84
2022/04/22 12:23:45;;;;;;;10.25;9.18;;;24.50;1.00;;;;;;5058450;28;20029;-83
2022/04/22 12:26:21;;;;;;;12.68;9.02;;;24.00;1.00;;;;;;5066837;28;20021;-89
2022/04/22 12:28:57;;;;;;;10.18;8.43;;;24.40;1.00;;;;;;5060653;28;20066;-84
2022/04/22 12:31:23;;;;;;;10.38;9.38;;;25.00;1.00;;;;;;5054620;28;20040;-84
2022/04/22 12:33:58;;;;;;;12.43;8.88;;;25.40;1.00;;;;;;5053603;28;20489;-84
2022/04/22 12:36:24;;;;;;;11.73;9.27;;;25.10;1.00;;;;;;5035955;28;20037;-84
2022/04/22 12:38:49;;;;;;;10.02;9.02;;;25.70;1.00;;;;;;5065570;28;20021;-84
2022/04/22 12:41:25;;;;;;;10.68;8.50;;;26.10;1.00;;;;;;5056737;28;20036;-84
2022/04/22 12:43:53;;;;;;;10.18;8.57;;;25.70;1.00;;;;;;5054438;28;20025;-84
2022/04/22 12:52:28;;;;;;;7.97;7.28;;;25.20;1.00;;;;;;5056397;28;20116;-85
2022/04/22 12:55:11;;;;;;;12.48;8.30;;;25.20;1.00;;;;;;5055224;28;20059;-84
2022/04/22 12:57:37;;;;;;;8.70;7.43;;;24.90;1.00;;;;;;5039358;28;20393;-84
2022/04/22 13:00:17;;;;;;;9.15;7.70;;;24.50;1.00;;;;;;5054843;28;20037;-84
2022/04/22 13:02:44;;;;;;;9.40;8.45;;;24.10;1.00;;;;;;5056941;28;20025;-85
2022/04/22 13:05:18;;;;;;;9.70;8.70;;;24.00;1.00;;;;;;5047787;28;20029;-86
2022/04/22 13:07:52;;;;;;;10.15;8.35;;;23.80;1.00;;;;;;5042028;28;20025;-85
2022/04/22 13:10:22;;;;;;;9.80;8.77;;;24.10;1.00;;;;;;5048782;28;20025;-85
2022/04/22 13:12:49;;;;;;;10.00;9.00;;;24.10;99.90;;;;;;5061869;28;20044;-84
2022/04/22 13:15:20;;;;;;;10.25;9.05;;;24.90;1.00;;;;;;5034763;28;20060;-86
2022/04/22 13:17:50;;;;;;;9.23;8.27;;;25.20;1.00;;;;;;5037595;28;20045;-85
2022/04/22 13:20:20;;;;;;;9.05;8.15;;;25.70;1.00;;;;;;5044725;28;20127;-87
2022/04/22 13:22:47;;;;;;;9.98;8.30;;;25.70;1.00;;;;;;5042481;28;20104;-83
2022/04/22 13:25:15;;;;;;;10.65;9.07;;;26.00;1.00;;;;;;5037872;28;20107;-84
2022/04/22 13:27:43;;;;;;;10.40;8.55;;;26.00;99.90;;;;;;5036014;28;20079;-86
2022/04/22 13:30:10;;;;;;;9.48;8.38;;;26.50;99.90;;;;;;5035816;28;20044;-83
2022/04/22 13:32:36;;;;;;;8.52;7.63;;;26.60;99.90;;;;;;5036492;28;20036;-83
2022/04/22 13:35:04;;;;;;;9.82;8.75;;;27.50;99.90;;;;;;5037562;28;20042;-85
2022/04/22 13:37:34;;;;;;;9.95;8.63;;;27.90;99.90;;;;;;5042876;28;20029;-84
2022/04/22 13:40:02;;;;;;;9.75;8.65;;;27.30;99.90;;;;;;5045833;28;20033;-86
2022/04/22 13:42:27;;;;;;;9.38;8.05;;;27.20;99.90;;;;;;5051046;28;20029;-86
2022/04/22 13:53:06;;;;;;;9.73;8.35;;;27.30;99.90;;;;;;5053050;28;20386;-83
2022/04/22 13:55:35;;;;;;;8.48;7.68;;;27.60;99.90;;;;;;5055274;28;20028;-84
2022/04/22 13:58:01;;;;;;;7.70;6.93;;;27.80;99.90;;;;;;5054906;28;20541;-83
2022/04/22 14:00:28;;;;;;;8.60;7.80;;;28.10;99.90;;;;;;5050370;28;20170;-83
2022/04/22 14:02:55;;;;;;;9.38;7.63;;;27.90;99.90;;;;;;5054443;28;20071;-84
2022/04/22 14:05:23;;;;;;;10.57;7.78;;;27.80;99.90;;;;;;5054855;28;20029;-84
2022/04/22 14:07:50;;;;;;;8.10;6.90;;;27.40;99.90;;;;;;5054629;28;20031;-84
2022/04/22 14:10:19;;;;;;;9.13;7.32;;;27.10;99.90;;;;;;5054497;28;20028;-84